sensor_id;sensor_type;location;lat;lon;timestamp;pressure;altitude;pressure_sealevel;temperature;humidity
69772;BME280;57046;45.988;18.664;2023-02-28T00:01:32;101772.91;;;3.69;90.67
69772;BME280;57046;45.988;18.664;2023-02-28T00:03:58;101779.16;;;3.75;90.29
69772;BME280;57046;45.988;18.664;2023-02-28T00:06:24;101776.63;;;3.68;91.01
69772;BME280;57046;45.988;18.664;2023-02-28T00:08:49;101785.13;;;3.65;90.91
69772;BME280;57046;45.988;18.664;2023-02-28T00:11:15;101776.47;;;3.58;91.90
69772;BME280;57046;45.988;18.664;2023-02-28T00:13:43;101735.94;;;3.33;92.12
69772;BME280;57046;45.988;18.664;2023-02-28T00:16:10;101775.31;;;3.54;92.38
69772;BME280;57046;45.988;18.664;2023-02-28T00:18:37;101780.56;;;3.49;92.83
69772;BME280;57046;45.988;18.664;2023-02-28T00:21:03;101789.22;;;3.39;93.23
69772;BME280;57046;45.988;18.664;2023-02-28T00:23:28;101790.94;;;3.45;92.15
69772;BME280;57046;45.988;18.664;2023-02-28T00:25:54;101781.44;;;3.38;92.71
69772;BME280;57046;45.988;18.664;2023-02-28T00:28:20;101788.69;;;3.26;92.96
69772;BME280;57046;45.988;18.664;2023-02-28T00:30:46;101788.59;;;3.21;92.82
69772;BME280;57046;45.988;18.664;2023-02-28T00:33:11;101798.44;;;3.32;92.88
69772;BME280;57046;45.988;18.664;2023-02-28T00:35:36;101801.25;;;3.25;92.37
69772;BME280;57046;45.988;18.664;2023-02-28T00:38:02;101804.25;;;3.29;92.42
69772;BME280;57046;45.988;18.664;2023-02-28T00:40:28;101800.22;;;3.15;92.78
69772;BME280;57046;45.988;18.664;2023-02-28T00:42:53;101793.88;;;3.04;93.39
69772;BME280;57046;45.988;18.664;2023-02-28T00:45:18;101801.25;;;3.14;93.51
69772;BME280;57046;45.988;18.664;2023-02-28T00:47:44;101806.41;;;3.03;93.55
69772;BME280;57046;45.988;18.664;2023-02-28T00:50:09;101813.38;;;2.93;94.29
69772;BME280;57046;45.988;18.664;2023-02-28T00:52:35;101805.28;;;2.88;95.04
69772;BME280;57046;45.988;18.664;2023-02-28T00:55:00;101802.72;;;2.93;95.17
69772;BME280;57046;45.988;18.664;2023-02-28T00:57:26;101799.06;;;3.11;94.53
69772;BME280;57046;45.988;18.664;2023-02-28T00:59:51;101796.53;;;3.04;93.71
69772;BME280;57046;45.988;18.664;2023-02-28T01:02:16;101794.75;;;2.81;95.19
69772;BME280;57046;45.988;18.664;2023-02-28T01:04:42;101790.91;;;2.89;95.27
69772;BME280;57046;45.988;18.664;2023-02-28T01:07:07;101771.53;;;2.82;94.94
69772;BME280;57046;45.988;18.664;2023-02-28T01:09:32;101795.31;;;2.83;95.06
69772;BME280;57046;45.988;18.664;2023-02-28T01:11:58;101799.47;;;2.91;94.43
69772;BME280;57046;45.988;18.664;2023-02-28T01:14:23;101800.78;;;2.88;94.83
69772;BME280;57046;45.988;18.664;2023-02-28T01:16:48;101803.22;;;2.78;95.25
69772;BME280;57046;45.988;18.664;2023-02-28T01:19:14;101800.44;;;2.73;95.61
69772;BME280;57046;45.988;18.664;2023-02-28T01:21:40;101795.56;;;2.82;94.85
69772;BME280;57046;45.988;18.664;2023-02-28T01:24:06;101793.94;;;2.81;95.28
69772;BME280;57046;45.988;18.664;2023-02-28T01:26:31;101803.78;;;2.92;94.74
69772;BME280;57046;45.988;18.664;2023-02-28T01:28:57;101798.03;;;2.72;95.65
69772;BME280;57046;45.988;18.664;2023-02-28T01:31:23;101793.25;;;2.74;94.80
69772;BME280;57046;45.988;18.664;2023-02-28T01:33:49;101785.03;;;2.64;95.15
69772;BME280;57046;45.988;18.664;2023-02-28T01:36:17;101780.59;;;2.69;95.04
69772;BME280;57046;45.988;18.664;2023-02-28T01:38:43;101786.19;;;2.68;95.27
69772;BME280;57046;45.988;18.664;2023-02-28T01:41:15;101776.59;;;2.55;95.27
69772;BME280;57046;45.988;18.664;2023-02-28T01:46:09;101781.66;;;2.68;94.82
69772;BME280;57046;45.988;18.664;2023-02-28T01:48:38;101782.22;;;2.70;94.42
69772;BME280;57046;45.988;18.664;2023-02-28T01:51:09;101730.78;;;2.35;94.72
69772;BME280;57046;45.988;18.664;2023-02-28T01:53:46;101769.91;;;2.69;94.53
69772;BME280;57046;45.988;18.664;2023-02-28T01:56:17;101769.38;;;2.55;94.79
69772;BME280;57046;45.988;18.664;2023-02-28T01:58:44;101769.50;;;2.49;94.66
69772;BME280;57046;45.988;18.664;2023-02-28T02:01:10;101768.69;;;2.48;94.44
69772;BME280;57046;45.988;18.664;2023-02-28T02:03:35;101768.91;;;2.35;94.16
69772;BME280;57046;45.988;18.664;2023-02-28T02:06:02;101788.63;;;2.58;93.96
69772;BME280;57046;45.988;18.664;2023-02-28T02:08:28;101775.53;;;2.56;93.74
69772;BME280;57046;45.988;18.664;2023-02-28T02:10:56;101772.63;;;2.46;94.58
69772;BME280;57046;45.988;18.664;2023-02-28T02:30:47;101766.84;;;2.37;94.33
69772;BME280;57046;45.988;18.664;2023-02-28T02:36:38;101778.78;;;2.35;94.71
69772;BME280;57046;45.988;18.664;2023-02-28T02:41:59;101778.69;;;2.30;95.07
69772;BME280;57046;45.988;18.664;2023-02-28T02:44:50;101774.16;;;2.30;94.86
69772;BME280;57046;45.988;18.664;2023-02-28T02:47:20;101770.22;;;2.33;94.49
69772;BME280;57046;45.988;18.664;2023-02-28T02:49:50;101766.03;;;2.14;94.49
69772;BME280;57046;45.988;18.664;2023-02-28T02:52:21;101767.66;;;2.26;94.41
69772;BME280;57046;45.988;18.664;2023-02-28T02:54:49;101764.88;;;2.21;94.45
69772;BME280;57046;45.988;18.664;2023-02-28T02:57:21;101764.53;;;2.18;94.75
69772;BME280;57046;45.988;18.664;2023-02-28T02:59:50;101772.44;;;2.24;93.79
69772;BME280;57046;45.988;18.664;2023-02-28T03:02:17;101772.78;;;2.28;93.91
69772;BME280;57046;45.988;18.664;2023-02-28T03:04:48;101769.75;;;2.24;93.66
69772;BME280;57046;45.988;18.664;2023-02-28T03:07:15;101781.94;;;2.20;93.87
69772;BME280;57046;45.988;18.664;2023-02-28T03:09:49;101773.00;;;2.26;93.97
69772;BME280;57046;45.988;18.664;2023-02-28T03:12:15;101777.28;;;2.27;93.94
69772;BME280;57046;45.988;18.664;2023-02-28T03:17:38;101780.19;;;2.14;94.13
69772;BME280;57046;45.988;18.664;2023-02-28T03:20:35;101775.31;;;2.23;93.66
69772;BME280;57046;45.988;18.664;2023-02-28T03:23:13;101773.56;;;2.17;93.76
69772;BME280;57046;45.988;18.664;2023-02-28T03:25:56;101774.63;;;2.16;93.52
69772;BME280;57046;45.988;18.664;2023-02-28T03:29:05;101781.56;;;2.17;93.80
69772;BME280;57046;45.988;18.664;2023-02-28T03:31:33;101765.56;;;2.17;93.83
69772;BME280;57046;45.988;18.664;2023-02-28T03:34:12;101801.28;;;2.27;93.43
69772;BME280;57046;45.988;18.664;2023-02-28T03:36:45;101793.16;;;2.22;93.87
69772;BME280;57046;45.988;18.664;2023-02-28T03:39:27;101793.38;;;2.32;93.78
69772;BME280;57046;45.988;18.664;2023-02-28T03:42:00;101781.94;;;2.20;93.39
69772;BME280;57046;45.988;18.664;2023-02-28T03:44:41;101786.47;;;2.31;93.78
69772;BME280;57046;45.988;18.664;2023-02-28T03:47:11;101784.59;;;2.20;93.15
69772;BME280;57046;45.988;18.664;2023-02-28T03:50:00;101774.03;;;2.14;93.53
69772;BME280;57046;45.988;18.664;2023-02-28T03:52:31;101777.88;;;2.18;93.05
69772;BME280;57046;45.988;18.664;2023-02-28T03:55:03;101789.31;;;2.18;93.06
69772;BME280;57046;45.988;18.664;2023-02-28T03:57:45;101733.69;;;1.87;93.09
69772;BME280;57046;45.988;18.664;2023-02-28T04:00:35;101780.53;;;2.29;93.20
69772;BME280;57046;45.988;18.664;2023-02-28T04:03:02;101772.41;;;2.13;93.44
69772;BME280;57046;45.988;18.664;2023-02-28T04:05:27;101784.22;;;2.28;92.91
69772;BME280;57046;45.988;18.664;2023-02-28T04:07:54;101786.78;;;2.35;93.29
69772;BME280;57046;45.988;18.664;2023-02-28T04:10:19;101777.75;;;2.36;93.40
69772;BME280;57046;45.988;18.664;2023-02-28T04:12:45;101783.78;;;2.31;93.60
69772;BME280;57046;45.988;18.664;2023-02-28T04:15:10;101790.63;;;2.27;93.64
69772;BME280;57046;45.988;18.664;2023-02-28T04:17:35;101776.69;;;2.25;93.48
69772;BME280;57046;45.988;18.664;2023-02-28T04:20:01;101785.19;;;2.34;93.30
69772;BME280;57046;45.988;18.664;2023-02-28T04:22:26;101786.19;;;2.21;94.06
69772;BME280;57046;45.988;18.664;2023-02-28T04:24:52;101788.66;;;2.34;93.69
69772;BME280;57046;45.988;18.664;2023-02-28T04:27:18;101798.03;;;2.37;93.37
69772;BME280;57046;45.988;18.664;2023-02-28T04:29:43;101771.00;;;2.22;93.74
69772;BME280;57046;45.988;18.664;2023-02-28T04:32:09;101798.50;;;2.34;93.59
69772;BME280;57046;45.988;18.664;2023-02-28T04:34:34;101783.78;;;2.31;93.23
69772;BME280;57046;45.988;18.664;2023-02-28T04:37:00;101797.44;;;2.35;92.90
69772;BME280;57046;45.988;18.664;2023-02-28T04:39:26;101798.13;;;2.42;92.72
69772;BME280;57046;45.988;18.664;2023-02-28T04:41:51;101797.13;;;2.31;93.10
69772;BME280;57046;45.988;18.664;2023-02-28T04:44:17;101797.56;;;2.40;93.07
69772;BME280;57046;45.988;18.664;2023-02-28T04:46:43;101799.88;;;2.36;93.07
69772;BME280;57046;45.988;18.664;2023-02-28T04:49:12;101795.13;;;2.38;92.41
69772;BME280;57046;45.988;18.664;2023-02-28T04:51:37;101795.94;;;2.39;92.87
69772;BME280;57046;45.988;18.664;2023-02-28T04:54:04;101781.56;;;2.28;92.81
69772;BME280;57046;45.988;18.664;2023-02-28T04:56:29;101782.97;;;2.31;92.70
69772;BME280;57046;45.988;18.664;2023-02-28T04:58:55;101793.53;;;2.37;92.34
69772;BME280;57046;45.988;18.664;2023-02-28T05:03:48;101787.94;;;2.39;92.24
69772;BME280;57046;45.988;18.664;2023-02-28T05:06:14;101769.63;;;2.19;92.25
69772;BME280;57046;45.988;18.664;2023-02-28T05:08:40;101796.66;;;2.34;92.58
69772;BME280;57046;45.988;18.664;2023-02-28T05:11:41;101796.53;;;2.29;92.26
69772;BME280;57046;45.988;18.664;2023-02-28T05:14:13;101794.91;;;2.17;92.43
69772;BME280;57046;45.988;18.664;2023-02-28T05:16:38;101793.53;;;2.14;92.84
69772;BME280;57046;45.988;18.664;2023-02-28T05:19:04;101794.47;;;2.31;93.88
69772;BME280;57046;45.988;18.664;2023-02-28T05:21:32;101797.09;;;2.20;92.56
69772;BME280;57046;45.988;18.664;2023-02-28T05:24:03;101796.88;;;2.33;96.43
69772;BME280;57046;45.988;18.664;2023-02-28T05:26:30;101794.22;;;2.33;94.15
69772;BME280;57046;45.988;18.664;2023-02-28T05:28:55;101787.34;;;2.25;92.75
69772;BME280;57046;45.988;18.664;2023-02-28T05:31:21;101801.84;;;2.29;92.91
69772;BME280;57046;45.988;18.664;2023-02-28T05:33:47;101798.50;;;2.22;92.71
69772;BME280;57046;45.988;18.664;2023-02-28T05:36:12;101806.50;;;2.22;92.47
69772;BME280;57046;45.988;18.664;2023-02-28T05:38:38;101815.78;;;2.31;92.27
69772;BME280;57046;45.988;18.664;2023-02-28T05:41:08;101819.25;;;2.32;92.35
69772;BME280;57046;45.988;18.664;2023-02-28T05:43:36;101827.03;;;2.33;92.61
69772;BME280;57046;45.988;18.664;2023-02-28T05:46:03;101831.22;;;2.41;92.24
69772;BME280;57046;45.988;18.664;2023-02-28T05:48:29;101832.25;;;2.40;92.18
69772;BME280;57046;45.988;18.664;2023-02-28T05:50:54;101833.75;;;2.36;93.08
69772;BME280;57046;45.988;18.664;2023-02-28T05:53:20;101841.41;;;2.32;92.12
69772;BME280;57046;45.988;18.664;2023-02-28T05:55:45;101835.59;;;2.35;91.35
69772;BME280;57046;45.988;18.664;2023-02-28T05:58:11;101840.72;;;2.37;91.04
69772;BME280;57046;45.988;18.664;2023-02-28T06:00:36;101841.28;;;2.74;100.00
69772;BME280;57046;45.988;18.664;2023-02-28T06:03:01;101841.63;;;2.66;96.19
69772;BME280;57046;45.988;18.664;2023-02-28T06:05:27;101843.84;;;2.57;93.47
69772;BME280;57046;45.988;18.664;2023-02-28T06:07:53;101845.34;;;2.53;92.30
69772;BME280;57046;45.988;18.664;2023-02-28T06:10:18;101841.19;;;2.34;91.11
69772;BME280;57046;45.988;18.664;2023-02-28T06:12:43;101847.56;;;2.44;91.78
69772;BME280;57046;45.988;18.664;2023-02-28T06:15:13;101845.47;;;2.46;91.81
69772;BME280;57046;45.988;18.664;2023-02-28T06:17:39;101859.50;;;2.53;92.44
69772;BME280;57046;45.988;18.664;2023-02-28T06:20:05;101862.63;;;2.62;91.41
69772;BME280;57046;45.988;18.664;2023-02-28T06:22:31;101865.19;;;2.57;91.78
69772;BME280;57046;45.988;18.664;2023-02-28T06:24:56;101861.94;;;2.55;91.83
69772;BME280;57046;45.988;18.664;2023-02-28T06:27:21;101867.97;;;2.62;90.33
69772;BME280;57046;45.988;18.664;2023-02-28T06:29:47;101866.81;;;2.58;91.26
69772;BME280;57046;45.988;18.664;2023-02-28T06:32:12;101869.00;;;2.38;92.48
69772;BME280;57046;45.988;18.664;2023-02-28T06:34:37;101868.78;;;2.51;92.99
69772;BME280;57046;45.988;18.664;2023-02-28T06:37:03;101868.66;;;2.46;92.54
69772;BME280;57046;45.988;18.664;2023-02-28T06:39:29;101864.94;;;2.47;92.50
69772;BME280;57046;45.988;18.664;2023-02-28T06:41:55;101863.91;;;2.48;92.33
69772;BME280;57046;45.988;18.664;2023-02-28T06:44:20;101869.13;;;2.43;92.63
69772;BME280;57046;45.988;18.664;2023-02-28T06:46:47;101872.38;;;2.56;92.02
69772;BME280;57046;45.988;18.664;2023-02-28T06:49:12;101866.59;;;2.48;92.54
69772;BME280;57046;45.988;18.664;2023-02-28T06:51:40;101865.53;;;2.61;92.38
69772;BME280;57046;45.988;18.664;2023-02-28T06:54:05;101873.41;;;2.55;92.11
69772;BME280;57046;45.988;18.664;2023-02-28T06:56:31;101869.47;;;2.46;91.28
69772;BME280;57046;45.988;18.664;2023-02-28T06:59:00;101869.47;;;2.46;92.02
69772;BME280;57046;45.988;18.664;2023-02-28T07:01:25;101875.28;;;2.55;91.69
69772;BME280;57046;45.988;18.664;2023-02-28T07:03:50;101879.09;;;2.59;91.48
69772;BME280;57046;45.988;18.664;2023-02-28T07:06:16;101872.03;;;2.65;91.60
69772;BME280;57046;45.988;18.664;2023-02-28T07:08:41;101869.81;;;2.73;90.78
69772;BME280;57046;45.988;18.664;2023-02-28T07:11:07;101861.81;;;2.73;90.89
69772;BME280;57046;45.988;18.664;2023-02-28T07:13:32;101872.38;;;2.68;91.39
69772;BME280;57046;45.988;18.664;2023-02-28T07:15:59;101875.38;;;2.60;91.63
69772;BME280;57046;45.988;18.664;2023-02-28T07:18:25;101873.88;;;2.64;91.42
69772;BME280;57046;45.988;18.664;2023-02-28T07:20:51;101870.75;;;2.67;91.33
69772;BME280;57046;45.988;18.664;2023-02-28T07:23:17;101866.91;;;2.63;91.16
69772;BME280;57046;45.988;18.664;2023-02-28T07:25:43;101876.78;;;2.63;90.56
69772;BME280;57046;45.988;18.664;2023-02-28T07:28:08;101870.97;;;2.66;90.23
69772;BME280;57046;45.988;18.664;2023-02-28T07:30:33;101874.72;;;2.65;89.38
69772;BME280;57046;45.988;18.664;2023-02-28T07:32:59;101874.00;;;2.69;89.66
69772;BME280;57046;45.988;18.664;2023-02-28T07:35:24;101887.69;;;2.73;90.75
69772;BME280;57046;45.988;18.664;2023-02-28T07:37:50;101879.69;;;2.49;89.78
69772;BME280;57046;45.988;18.664;2023-02-28T07:40:15;101879.69;;;2.61;90.52
69772;BME280;57046;45.988;18.664;2023-02-28T07:42:41;101880.50;;;2.73;90.65
69772;BME280;57046;45.988;18.664;2023-02-28T07:45:08;101877.00;;;2.73;89.66
69772;BME280;57046;45.988;18.664;2023-02-28T07:47:34;101878.78;;;2.79;89.57
69772;BME280;57046;45.988;18.664;2023-02-28T07:49:59;101871.56;;;2.68;88.85
69772;BME280;57046;45.988;18.664;2023-02-28T07:52:25;101869.59;;;2.75;89.55
69772;BME280;57046;45.988;18.664;2023-02-28T07:54:50;101881.09;;;2.75;89.51
69772;BME280;57046;45.988;18.664;2023-02-28T07:57:16;101881.22;;;2.69;88.84
69772;BME280;57046;45.988;18.664;2023-02-28T07:59:42;101876.44;;;2.71;89.65
69772;BME280;57046;45.988;18.664;2023-02-28T08:02:13;101882.47;;;2.78;92.00
69772;BME280;57046;45.988;18.664;2023-02-28T08:04:39;101884.44;;;2.82;90.63
69772;BME280;57046;45.988;18.664;2023-02-28T08:07:05;101881.06;;;2.87;90.62
69772;BME280;57046;45.988;18.664;2023-02-28T08:09:30;101881.19;;;2.92;90.37
69772;BME280;57046;45.988;18.664;2023-02-28T08:11:55;101881.06;;;2.98;91.03
69772;BME280;57046;45.988;18.664;2023-02-28T08:14:21;101883.50;;;3.00;89.94
69772;BME280;57046;45.988;18.664;2023-02-28T08:16:46;101885.13;;;2.89;90.56
69772;BME280;57046;45.988;18.664;2023-02-28T08:19:12;101882.69;;;2.88;89.34
69772;BME280;57046;45.988;18.664;2023-02-28T08:21:37;101880.25;;;2.98;91.21
69772;BME280;57046;45.988;18.664;2023-02-28T08:24:03;101891.03;;;3.03;91.05
69772;BME280;57046;45.988;18.664;2023-02-28T08:26:28;101882.78;;;3.04;91.49
69772;BME280;57046;45.988;18.664;2023-02-28T08:28:53;101876.75;;;2.97;91.78
69772;BME280;57046;45.988;18.664;2023-02-28T08:31:19;101891.63;;;2.93;90.56
69772;BME280;57046;45.988;18.664;2023-02-28T08:33:45;101889.78;;;3.05;90.10
69772;BME280;57046;45.988;18.664;2023-02-28T08:36:10;101888.00;;;3.11;90.97
69772;BME280;57046;45.988;18.664;2023-02-28T08:38:37;101890.81;;;3.16;90.17
69772;BME280;57046;45.988;18.664;2023-02-28T08:41:05;101862.84;;;2.95;90.04
69772;BME280;57046;45.988;18.664;2023-02-28T08:43:31;101890.81;;;3.16;90.37
69772;BME280;57046;45.988;18.664;2023-02-28T08:45:57;101890.00;;;3.04;89.68
69772;BME280;57046;45.988;18.664;2023-02-28T08:48:23;101889.50;;;3.07;90.34
69772;BME280;57046;45.988;18.664;2023-02-28T08:51:01;101886.03;;;3.18;90.25
69772;BME280;57046;45.988;18.664;2023-02-28T08:53:26;101888.25;;;3.10;89.78
69772;BME280;57046;45.988;18.664;2023-02-28T08:58:48;101891.34;;;3.30;90.68
69772;BME280;57046;45.988;18.664;2023-02-28T09:01:19;101850.16;;;3.14;89.20
69772;BME280;57046;45.988;18.664;2023-02-28T09:03:47;101885.66;;;3.26;90.99
69772;BME280;57046;45.988;18.664;2023-02-28T09:06:14;101888.09;;;3.28;90.79
69772;BME280;57046;45.988;18.664;2023-02-28T09:08:40;101893.16;;;3.41;91.07
69772;BME280;57046;45.988;18.664;2023-02-28T09:11:06;101887.72;;;3.36;90.57
69772;BME280;57046;45.988;18.664;2023-02-28T09:13:32;101882.25;;;3.42;90.16
69772;BME280;57046;45.988;18.664;2023-02-28T09:16:00;101886.44;;;3.27;90.13
69772;BME280;57046;45.988;18.664;2023-02-28T09:18:26;101881.69;;;3.29;90.57
69772;BME280;57046;45.988;18.664;2023-02-28T09:20:52;101887.72;;;3.36;90.50
69772;BME280;57046;45.988;18.664;2023-02-28T09:23:17;101885.88;;;3.36;90.25
69772;BME280;57046;45.988;18.664;2023-02-28T09:25:51;101877.53;;;3.33;90.13
69772;BME280;57046;45.988;18.664;2023-02-28T09:28:17;101890.63;;;3.34;91.10
69772;BME280;57046;45.988;18.664;2023-02-28T09:30:48;101891.97;;;3.48;90.52
69772;BME280;57046;45.988;18.664;2023-02-28T09:33:15;101885.19;;;3.57;90.33
69772;BME280;57046;45.988;18.664;2023-02-28T09:35:41;101883.50;;;3.51;90.36
69772;BME280;57046;45.988;18.664;2023-02-28T09:38:06;101884.50;;;3.62;90.40
69772;BME280;57046;45.988;18.664;2023-02-28T09:40:39;101882.53;;;3.57;89.66
69772;BME280;57046;45.988;18.664;2023-02-28T09:43:12;101887.38;;;3.72;90.19
69772;BME280;57046;45.988;18.664;2023-02-28T09:45:41;101881.31;;;3.77;90.76
69772;BME280;57046;45.988;18.664;2023-02-28T09:48:20;101887.16;;;3.62;89.35
69772;BME280;57046;45.988;18.664;2023-02-28T09:50:50;101888.56;;;3.65;89.15
69772;BME280;57046;45.988;18.664;2023-02-28T09:53:33;101896.34;;;3.66;89.12
69772;BME280;57046;45.988;18.664;2023-02-28T09:56:04;101902.03;;;3.70;89.58
69772;BME280;57046;45.988;18.664;2023-02-28T09:58:40;101891.06;;;3.71;90.26
69772;BME280;57046;45.988;18.664;2023-02-28T10:04:00;101885.38;;;3.79;89.21
69772;BME280;57046;45.988;18.664;2023-02-28T10:06:32;101894.13;;;3.91;89.36
69772;BME280;57046;45.988;18.664;2023-02-28T10:09:16;101834.44;;;3.57;90.21
69772;BME280;57046;45.988;18.664;2023-02-28T10:11:43;101883.13;;;3.88;88.64
69772;BME280;57046;45.988;18.664;2023-02-28T10:14:19;101893.84;;;4.04;90.07
69772;BME280;57046;45.988;18.664;2023-02-28T10:16:50;101855.00;;;3.85;89.29
69772;BME280;57046;45.988;18.664;2023-02-28T10:21:59;101865.13;;;3.83;88.57
69772;BME280;57046;45.988;18.664;2023-02-28T10:24:30;101898.38;;;4.04;88.24
69772;BME280;57046;45.988;18.664;2023-02-28T10:27:00;101901.53;;;4.01;87.42
69772;BME280;57046;45.988;18.664;2023-02-28T10:29:28;101906.31;;;3.99;88.80
69772;BME280;57046;45.988;18.664;2023-02-28T10:31:56;101902.44;;;4.06;88.20
69772;BME280;57046;45.988;18.664;2023-02-28T10:34:22;101897.41;;;4.10;86.81
69772;BME280;57046;45.988;18.664;2023-02-28T10:36:49;101898.22;;;4.10;87.73
69772;BME280;57046;45.988;18.664;2023-02-28T10:39:53;101897.56;;;4.03;86.89
69772;BME280;57046;45.988;18.664;2023-02-28T10:42:29;101892.94;;;4.16;88.12
69772;BME280;57046;45.988;18.664;2023-02-28T10:45:15;101885.34;;;4.24;88.09
69772;BME280;57046;45.988;18.664;2023-02-28T10:47:55;101883.81;;;4.28;87.95
69772;BME280;57046;45.988;18.664;2023-02-28T10:58:47;101864.44;;;4.38;87.04
69772;BME280;57046;45.988;18.664;2023-02-28T11:01:17;101861.34;;;4.46;87.83
69772;BME280;57046;45.988;18.664;2023-02-28T11:03:43;101870.34;;;4.40;87.62
69772;BME280;57046;45.988;18.664;2023-02-28T11:06:16;101865.25;;;4.38;88.70
69772;BME280;57046;45.988;18.664;2023-02-28T11:08:52;101830.31;;;4.28;86.84
69772;BME280;57046;45.988;18.664;2023-02-28T11:11:18;101855.44;;;4.44;87.35
69772;BME280;57046;45.988;18.664;2023-02-28T11:13:46;101827.47;;;4.35;88.14
69772;BME280;57046;45.988;18.664;2023-02-28T11:16:13;101822.81;;;4.47;87.27
69772;BME280;57046;45.988;18.664;2023-02-28T11:18:47;101845.53;;;4.61;86.88
69772;BME280;57046;45.988;18.664;2023-02-28T11:21:34;101841.00;;;4.61;87.03
69772;BME280;57046;45.988;18.664;2023-02-28T11:24:15;101839.19;;;4.67;87.40
69772;BME280;57046;45.988;18.664;2023-02-28T11:26:47;101785.94;;;4.32;86.27
69772;BME280;57046;45.988;18.664;2023-02-28T11:29:24;101837.13;;;4.52;87.77
69772;BME280;57046;45.988;18.664;2023-02-28T11:34:34;101830.38;;;4.50;86.32
69772;BME280;57046;45.988;18.664;2023-02-28T11:37:00;101821.78;;;4.48;86.31
69772;BME280;57046;45.988;18.664;2023-02-28T11:39:27;101818.94;;;4.54;86.66
69772;BME280;57046;45.988;18.664;2023-02-28T11:41:59;101827.03;;;4.59;87.05
69772;BME280;57046;45.988;18.664;2023-02-28T11:44:47;101793.97;;;4.49;88.09
69772;BME280;57046;45.988;18.664;2023-02-28T11:53:01;101813.53;;;4.71;87.94
69772;BME280;57046;45.988;18.664;2023-02-28T11:55:36;101789.91;;;4.46;86.15
69772;BME280;57046;45.988;18.664;2023-02-28T12:11:36;101798.16;;;4.83;85.23
69772;BME280;57046;45.988;18.664;2023-02-28T12:14:42;101797.94;;;4.85;86.57
69772;BME280;57046;45.988;18.664;2023-02-28T12:17:22;101801.66;;;4.84;86.06
69772;BME280;57046;45.988;18.664;2023-02-28T12:25:55;101802.47;;;4.84;85.32
69772;BME280;57046;45.988;18.664;2023-02-28T12:28:30;101804.28;;;5.00;85.56
69772;BME280;57046;45.988;18.664;2023-02-28T12:31:19;101795.00;;;4.86;85.50
69772;BME280;57046;45.988;18.664;2023-02-28T12:33:50;101771.25;;;4.73;83.85
69772;BME280;57046;45.988;18.664;2023-02-28T12:36:18;101775.81;;;4.94;84.09
69772;BME280;57046;45.988;18.664;2023-02-28T12:39:00;101789.31;;;5.04;84.36
69772;BME280;57046;45.988;18.664;2023-02-28T12:44:33;101782.22;;;4.93;82.52
69772;BME280;57046;45.988;18.664;2023-02-28T12:47:05;101800.16;;;5.14;82.17
69772;BME280;57046;45.988;18.664;2023-02-28T12:49:41;101799.63;;;5.12;82.66
69772;BME280;57046;45.988;18.664;2023-02-28T12:52:11;101771.66;;;5.03;82.76
69772;BME280;57046;45.988;18.664;2023-02-28T12:54:53;101795.63;;;5.15;82.46
69772;BME280;57046;45.988;18.664;2023-02-28T12:59:58;101796.78;;;5.24;82.54
69772;BME280;57046;45.988;18.664;2023-02-28T13:08:53;101800.78;;;5.22;82.23
69772;BME280;57046;45.988;18.664;2023-02-28T13:14:18;101785.47;;;5.17;80.41
69772;BME280;57046;45.988;18.664;2023-02-28T13:17:17;101782.28;;;5.20;81.26
69772;BME280;57046;45.988;18.664;2023-02-28T13:19:56;101789.75;;;5.18;81.09
69772;BME280;57046;45.988;18.664;2023-02-28T13:24:55;101786.03;;;5.19;80.98
69772;BME280;57046;45.988;18.664;2023-02-28T13:27:38;101778.38;;;5.06;81.49
69772;BME280;57046;45.988;18.664;2023-02-28T13:35:45;101776.75;;;5.05;80.38
69772;BME280;57046;45.988;18.664;2023-02-28T13:38:23;101770.88;;;5.08;79.74
69772;BME280;57046;45.988;18.664;2023-02-28T13:40:49;101781.59;;;5.08;80.12
69772;BME280;57046;45.988;18.664;2023-02-28T13:43:16;101784.97;;;5.20;79.96
69772;BME280;57046;45.988;18.664;2023-02-28T13:46:12;101782.13;;;5.32;81.10
69772;BME280;57046;45.988;18.664;2023-02-28T13:48:38;101779.16;;;5.28;81.06
69772;BME280;57046;45.988;18.664;2023-02-28T13:51:35;101776.16;;;5.25;80.20
69772;BME280;57046;45.988;18.664;2023-02-28T13:54:17;101777.69;;;5.16;79.70
69772;BME280;57046;45.988;18.664;2023-02-28T13:57:44;101782.19;;;5.37;79.26
69772;BME280;57046;45.988;18.664;2023-02-28T14:05:38;101762.91;;;5.13;80.92
69772;BME280;57046;45.988;18.664;2023-02-28T14:08:24;101769.44;;;5.22;81.62
69772;BME280;57046;45.988;18.664;2023-02-28T14:10:51;101777.56;;;5.05;80.54
69772;BME280;57046;45.988;18.664;2023-02-28T14:15:57;101763.53;;;5.20;80.11
69772;BME280;57046;45.988;18.664;2023-02-28T14:18:27;101763.53;;;5.20;80.67
69772;BME280;57046;45.988;18.664;2023-02-28T14:20:58;101760.31;;;4.96;81.68
69772;BME280;57046;45.988;18.664;2023-02-28T14:31:25;101768.63;;;5.22;81.45
69772;BME280;57046;45.988;18.664;2023-02-28T14:36:40;101722.31;;;5.26;84.75
69772;BME280;57046;45.988;18.664;2023-02-28T14:39:12;101763.97;;;5.39;81.05
69772;BME280;57046;45.988;18.664;2023-02-28T14:41:40;101774.47;;;5.40;81.47
69772;BME280;57046;45.988;18.664;2023-02-28T14:44:18;101759.63;;;5.33;80.53
69772;BME280;57046;45.988;18.664;2023-02-28T14:46:45;101749.94;;;5.27;80.98
69772;BME280;57046;45.988;18.664;2023-02-28T14:49:26;101754.28;;;5.33;79.77
69772;BME280;57046;45.988;18.664;2023-02-28T14:52:26;101761.56;;;5.37;79.37
69772;BME280;57046;45.988;18.664;2023-02-28T14:55:28;101755.63;;;5.35;80.09
69772;BME280;57046;45.988;18.664;2023-02-28T14:57:56;101769.31;;;5.34;79.79
69772;BME280;57046;45.988;18.664;2023-02-28T15:00:25;101766.88;;;5.32;78.98
69772;BME280;57046;45.988;18.664;2023-02-28T15:02:52;101751.28;;;5.29;80.39